Date,TemperatureHighF,TemperatureAvgF,TemperatureLowF,DewpointHighF,DewpointAvgF,DewpointLowF,HumidityHigh,HumidityAvg,HumidityLow,PressureMaxIn,PressureMinIn,WindSpeedMaxMPH,WindSpeedAvgMPH,GustSpeedMaxMPH,PrecipitationSumIn
2013-1-1,40,34,29,33,31,28,98,89,72,30.51,30.36,6,1,8,0.02
2013-1-2,44,35,30,34,29,24,94,79,49,30.36,30.18,6,1,10,0.00
2013-1-3,44,34,28,36,28,22,97,78,42,30.19,30.07,9,1,15,0.24
2013-1-4,48,42,36,46,41,36,99,94,88,30.31,30.16,10,2,15,0.05
2013-1-5,45,42,40,40,38,34,96,84,72,30.20,30.10,8,2,13,0.13
2013-1-6,45,42,39,42,40,38,97,91,82,30.17,29.96,13,4,21,0.05
2013-1-7,50,46,40,48,44,40,98,91,82,30.15,29.76,15,5,27,0.08
2013-1-8,51,46,42,50,45,40,99,93,83,30.15,29.69,23,6,37,1.04
2013-1-9,50,40,35,48,40,35,99,97,90,29.92,29.63,19,3,24,0.99
2013-1-10,38,35,31,37,34,28,98,95,87,30.10,29.91,5,1,10,0.05
2013-1-11,34,30,26,30,27,24,98,90,75,30.33,30.09,7,1,13,0.00
2013-1-12,37,29,25,31,26,24,99,88,68,30.45,30.32,8,1,10,0.02
2013-1-13,35,30,24,31,27,23,98,89,68,30.50,30.45,4,0,4,0.00
2013-1-14,36,34,32,32,30,28,90,85,76,30.58,30.48,6,1,9,0.00
2013-1-15,43,36,32,35,32,30,95,84,68,30.72,30.58,4,1,8,0.00
2013-1-16,40,33,28,36,31,28,99,92,78,30.71,30.53,4,1,6,0.00
2013-1-17,38,33,28,37,33,28,100,98,95,30.53,30.29,4,1,6,0.02
2013-1-18,38,34,31,38,34,31,100,99,98,30.35,30.25,4,1,6,0.00
2013-1-19,36,33,31,35,33,31,100,99,97,30.39,30.34,5,1,6,0.00
2013-1-20,40,34,31,38,34,31,100,98,92,30.40,30.25,5,1,8,0.00
2013-1-21,36,33,30,36,33,30,100,99,97,30.28,30.12,6,1,9,0.00
2013-1-22,38,34,31,37,34,31,100,97,91,30.12,29.87,4,1,8,0.00
2013-1-23,42,40,38,41,38,34,99,92,77,30.12,29.80,8,2,13,0.30
2013-1-24,46,42,40,41,39,36,99,89,71,30.20,30.03,8,2,12,0.14
2013-1-25,50,45,41,46,43,38,100,91,78,30.04,29.89,8,2,13,0.08
2013-1-26,44,42,40,42,40,38,98,93,89,30.01,29.84,11,2,19,0.30
2013-1-27,42,40,0,40,38,3,98,92,87,30.03,29.96,13,3,18,0.11
2013-1-28,42,40,38,41,40,37,99,97,95,30.07,29.98,8,2,15,0.32
2013-1-29,46,44,41,46,44,41,100,99,96,30.33,30.07,11,2,16,0.48
2013-1-30,47,46,44,47,46,43,100,100,99,30.39,30.33,7,2,9,0.26
2013-1-31,50,47,45,47,46,45,100,97,88,30.40,30.30,12,3,24,0.10
2013-2-1,50,45,40,48,44,40,99,96,84,30.42,30.33,5,1,9,0.02
2013-2-2,43,40,38,42,40,38,100,98,93,30.39,30.25,7,1,12,0.00
2013-2-3,47,43,39,45,42,38,100,96,88,30.30,30.20,6,2,9,0.08
2013-2-4,51,46,43,44,43,42,96,89,74,30.20,29.86,10,2,12,0.00
2013-2-5,52,46,43,45,42,41,97,88,72,29.90,29.80,16,5,27,0.18
2013-2-6,51,45,43,44,41,40,96,87,67,30.03,29.75,15,4,24,0.14
2013-2-7,50,43,36,42,37,35,96,80,59,30.17,29.75,16,3,25,0.08
2013-2-8,45,40,34,39,37,34,99,88,74,30.31,30.18,4,1,8,0.00
2013-2-9,45,42,40,41,40,37,97,92,77,30.35,30.25,5,0,6,0.02
2013-2-10,46,40,34,42,38,34,100,94,78,30.39,30.32,4,1,6,0.00
2013-2-11,47,43,40,42,40,39,98,90,77,30.37,30.33,5,1,9,0.03
2013-2-12,49,46,44,46,44,42,98,94,86,30.41,30.28,12,2,22,0.02
2013-2-13,48,45,43,46,43,42,97,92,83,30.52,30.30,9,1,13,0.06
2013-2-14,128,45,31,73,43,31,100,94,10,30.58,30.50,8,2,13,0.06
2013-2-15,128,44,-7,100,34,-100,100,100,100,30.57,30.35,5,1,9,0.02
2013-2-24,46,45,43,37,36,34,77,70,65,30.29,29.92,22,6,28,0.02
2013-2-25,53,43,38,41,15,-100,99,65,46,30.32,29.85,19,5,27,0.08
2013-2-26,47,42,35,38,31,-100,98,73,57,30.35,30.19,17,4,21,0.00
2013-2-27,48,43,40,45,-51,-100,99,29,71,30.31,30.20,9,2,18,0.24
2013-2-28,51,46,41,-100,-100,-100,0,0,100,30.33,30.17,15,3,27,0.16
2013-3-1,56,52,50,52,-24,-100,99,45,78,30.38,30.28,18,5,28,0.13
2013-3-2,58,48,37,51,31,-100,99,79,69,30.28,30.06,19,4,24,0.19
2013-3-3,53,41,35,37,33,28,93,75,40,30.31,30.20,9,2,13,0.02
2013-3-4,53,41,31,32,27,22,92,61,35,30.31,29.90,12,2,15,0.00
2013-3-5,50,44,40,39,32,23,87,63,42,29.90,29.69,7,1,10,0.00
2013-3-6,43,41,39,41,38,34,94,89,72,29.87,29.53,12,2,16,0.58
2013-3-7,51,43,39,42,39,34,94,85,59,30.07,29.87,9,1,13,0.21
2013-3-8,55,42,35,39,36,32,93,79,50,30.24,30.06,10,2,12,0.00
2013-3-9,57,43,32,42,37,30,100,79,53,30.51,30.24,8,1,10,0.00
2013-3-10,48,43,39,44,40,37,98,90,76,30.52,30.44,7,1,9,0.01
2013-3-11,52,46,41,47,44,41,100,90,69,30.46,30.15,8,1,12,0.03
2013-3-12,56,52,48,52,50,47,100,92,75,30.15,30.05,24,6,28,0.06
2013-3-13,52,51,50,52,50,49,100,97,91,30.20,30.07,17,5,27,0.16
2013-3-14,53,50,47,50,48,45,100,94,76,30.15,30.02,14,3,16,0.03
2013-3-15,60,52,48,52,49,46,100,90,73,30.21,30.13,13,3,19,0.00
2013-3-16,53,47,39,47,43,37,94,86,70,30.13,29.86,17,4,22,0.02
2013-3-17,54,43,39,41,37,34,97,82,49,30.19,29.95,12,3,16,0.03
2013-3-18,56,44,39,42,38,33,92,77,46,30.24,30.08,16,4,25,0.00
2013-3-19,58,44,36,43,37,31,100,81,39,30.23,29.55,15,2,19,0.30
2013-3-20,54,47,39,50,43,34,100,87,67,30.00,29.31,25,6,30,0.46
2013-3-21,54,41,36,42,36,34,99,85,53,30.21,30.00,13,3,16,0.06
2013-3-22,48,39,34,38,34,28,100,82,54,30.38,30.21,10,2,13,0.03
2013-3-23,54,41,33,36,31,25,97,71,38,30.41,30.30,9,1,12,0.05
2013-3-24,54,43,32,37,32,29,95,68,39,30.30,30.11,6,1,9,0.00
2013-3-25,64,50,38,38,33,28,74,51,34,30.13,29.91,8,2,9,0.00
2013-3-26,55,50,45,42,40,34,79,67,57,30.00,29.94,6,1,8,0.00
2013-3-27,62,50,45,49,43,36,98,77,53,29.97,29.92,6,1,6,0.03
2013-3-28,65,53,45,52,47,44,100,83,53,30.15,29.97,9,1,10,0.02
2013-3-29,69,54,45,52,46,43,99,76,48,30.25,30.15,8,1,9,0.00
2013-3-30,69,54,42,50,45,42,99,74,46,30.26,30.07,10,2,13,0.00
2013-3-31,74,57,45,51,45,4,90,67,44,30.07,29.89,9,2,9,0.00
2013-4-1,63,53,47,50,48,44,95,82,62,30.15,29.95,13,3,13,0.00
2013-4-2,58,52,49,49,47,45,90,80,68,30.20,30.15,10,2,15,0.00
2013-4-3,66,54,45,51,47,44,98,77,51,30.19,29.93,6,1,8,0.00
2013-4-4,56,52,49,54,51,46,100,93,85,29.93,29.60,16,2,24,0.35
2013-4-5,62,53,48,53,50,48,100,91,70,29.84,29.69,22,4,27,0.37
2013-4-6,56,48,45,50,46,43,100,92,73,29.90,29.66,22,5,27,0.48
2013-4-7,46,43,40,46,43,40,100,99,96,29.86,29.45,13,2,15,0.75
2013-4-8,59,48,42,49,45,42,100,89,69,30.27,29.86,9,2,10,0.05
2013-4-9,56,49,43,46,43,40,97,80,59,30.36,30.17,13,3,15,0.00
2013-4-10,64,52,48,55,47,43,100,85,68,30.26,29.92,13,4,19,0.24
2013-4-11,54,48,44,47,42,36,99,80,52,30.31,30.19,12,2,15,0.03
2013-4-12,48,44,40,45,41,37,100,89,71,30.19,29.63,22,4,25,0.22
2013-4-13,53,42,37,47,40,36,100,93,70,29.99,29.72,16,3,22,0.34
2013-4-14,60,45,39,45,40,33,100,82,49,30.00,29.90,9,2,13,0.03
2013-4-15,60,46,40,45,41,37,99,82,54,30.17,29.92,13,2,22,0.00
2013-4-16,62,46,37,45,39,33,100,79,49,30.41,30.17,12,1,19,0.00
2013-4-17,64,49,38,45,40,35,100,73,37,30.48,30.40,13,2,13,0.00
2013-4-18,52,47,44,49,44,39,100,88,73,30.48,30.20,18,4,25,0.16
2013-4-19,55,51,48,54,50,48,100,99,92,30.20,30.05,19,3,25,0.48
2013-4-20,57,49,46,52,48,45,100,94,72,30.28,30.19,10,2,13,0.18
2013-4-21,56,47,42,50,44,39,100,89,67,30.38,30.23,10,2,13,0.05
2013-4-22,64,50,38,46,37,25,100,66,32,30.55,30.38,12,2,13,0.00
2013-4-23,67,51,37,42,37,29,94,62,27,30.45,30.25,12,2,15,0.00
2013-4-24,73,56,41,46,39,32,93,56,30,30.33,30.05,8,1,12,0.00
2013-4-25,75,59,44,47,41,34,83,53,29,30.14,30.03,9,1,10,0.00
2013-4-26,68,57,46,51,48,43,99,74,52,30.26,30.14,9,1,10,0.00
2013-4-27,57,54,52,49,45,40,88,73,59,30.22,30.15,21,3,24,0.00
2013-4-28,65,52,46,51,46,41,98,82,53,30.22,29.93,18,3,21,0.02
2013-4-29,61,49,43,48,41,34,100,76,43,30.16,29.89,13,3,16,0.14
2013-4-30,58,46,37,44,37,31,98,71,41,30.46,30.16,8,2,12,0.08
2013-5-1,66,51,36,44,37,34,98,63,32,30.60,30.46,12,1,13,0.00
2013-5-2,71,56,44,48,42,37,84,59,41,30.58,30.39,10,2,15,0.00
2013-5-3,71,58,45,52,46,41,89,65,46,30.41,30.23,12,2,16,0.00
2013-5-4,77,66,51,55,46,39,83,52,30,30.25,29.99,12,2,16,0.00
2013-5-5,83,68,57,53,46,39,62,46,30,29.99,29.74,9,1,12,0.00
2013-5-6,86,70,54,54,48,43,78,48,27,29.83,29.72,9,1,13,0.00
2013-5-7,72,60,52,55,52,49,92,74,52,29.99,29.79,13,2,15,0.00
2013-5-8,65,56,51,54,51,49,92,81,61,30.15,29.99,8,1,12,0.00
2013-5-9,70,57,49,56,52,48,99,82,52,30.23,30.11,6,1,6,0.00
2013-5-10,80,63,49,58,52,48,98,69,40,30.20,30.10,6,1,9,0.00
2013-5-11,81,65,54,57,50,44,82,60,38,30.17,29.97,12,1,13,0.00
2013-5-12,72,63,58,59,56,51,99,80,59,30.10,30.00,13,3,18,0.16
2013-5-13,67,57,48,61,52,42,97,83,65,30.19,29.92,18,3,27,0.29
2013-5-14,67,55,47,49,44,39,89,68,42,30.23,30.11,12,2,13,0.00
2013-5-15,69,55,47,52,47,42,97,77,42,30.12,30.00,9,1,10,0.03
2013-5-16,73,60,53,56,52,46,99,77,47,30.01,29.84,6,1,9,0.00
2013-5-17,64,57,53,52,49,45,92,74,53,30.05,29.93,12,4,15,0.00
2013-5-18,63,56,51,49,47,45,88,72,53,30.28,30.05,10,2,13,0.00
2013-5-19,67,57,51,53,49,47,89,75,58,30.42,30.28,8,1,9,0.00
2013-5-20,70,56,46,53,48,46,98,76,47,30.38,29.89,8,1,10,0.00
2013-5-21,56,50,46,51,47,45,100,91,66,29.89,29.75,10,2,13,0.42
2013-5-22,54,48,44,49,46,44,100,93,78,29.92,29.82,9,2,13,0.06
2013-5-23,62,50,45,50,46,43,99,85,57,30.00,29.91,13,1,22,0.06
2013-5-24,66,54,46,51,47,43,100,78,48,30.05,29.95,10,2,13,0.00
2013-5-25,68,55,50,51,48,45,94,77,45,30.03,29.95,10,2,12,0.00
2013-5-26,66,56,50,57,52,48,99,87,64,29.98,29.93,10,1,12,0.10
2013-5-27,60,55,51,58,54,49,98,94,85,29.95,29.68,9,2,12,0.18
2013-5-28,66,56,52,55,50,47,96,81,60,29.86,29.74,12,3,18,0.03
2013-5-29,63,54,49,53,50,48,100,87,64,29.95,29.65,15,2,16,0.08
2013-5-30,66,56,49,50,47,46,90,74,50,30.25,29.95,16,4,19,0.00
2013-5-31,69,58,51,51,47,42,89,68,42,30.36,30.25,9,1,10,0.02
2013-6-1,76,61,51,53,48,45,87,64,35,30.25,30.05,12,2,13,0.00
2013-6-2,73,61,52,55,51,46,96,70,47,30.09,30.04,9,1,12,0.03
2013-6-3,74,61,50,56,52,50,98,74,50,30.12,30.05,8,1,10,0.00
2013-6-4,72,64,55,54,50,46,86,60,52,30.10,30.02,6,1,9,0.00
2013-6-5,80,66,54,59,53,47,80,63,45,30.09,30.02,9,2,12,0.00
2013-6-6,81,67,53,57,51,43,94,59,31,30.06,30.00,10,1,12,0.00
2013-6-7,69,62,55,57,50,42,80,65,46,30.15,30.02,13,2,16,0.00
2013-6-8,69,58,53,52,49,47,81,71,54,30.20,30.10,10,2,15,0.00
2013-6-9,70,58,51,51,48,45,88,71,48,30.12,30.02,12,2,13,0.00
2013-6-10,73,59,48,52,48,45,90,67,39,30.03,29.87,8,2,10,0.00
2013-6-11,67,57,52,56,48,45,93,72,54,30.10,29.92,15,4,19,0.18
2013-6-12,73,59,51,51,48,46,86,67,40,30.15,30.10,12,3,16,0.00
2013-6-13,72,60,52,52,49,46,88,70,45,30.23,30.14,8,1,9,0.00
2013-6-14,70,59,54,51,48,47,83,70,50,30.24,30.05,13,2,15,0.00
2013-6-15,76,63,49,57,52,48,98,71,47,30.05,29.91,9,1,10,0.00
2013-6-16,77,64,54,58,54,51,90,70,50,30.09,29.97,9,2,13,0.00
2013-6-17,78,66,56,55,52,47,86,64,38,30.09,29.87,10,2,13,0.00
2013-6-18,77,64,55,54,50,42,92,62,32,29.97,29.86,10,2,13,0.00
2013-6-19,73,60,54,54,51,49,87,72,47,30.00,29.90,9,2,10,0.00
2013-6-20,60,56,52,57,52,49,100,89,72,30.11,29.95,10,2,13,0.67
2013-6-21,68,59,52,58,53,49,100,81,57,30.17,30.11,6,1,9,0.03
2013-6-22,79,65,51,58,53,49,99,67,38,30.12,29.84,8,1,10,0.00
2013-6-23,72,65,58,64,59,53,100,81,65,29.80,29.56,4,1,8,0.16
2013-6-24,69,62,55,61,57,53,100,84,61,29.67,29.54,16,3,18,0.13
2013-6-25,77,63,56,62,57,53,100,85,46,29.84,29.64,10,2,15,0.40
2013-6-26,74,64,56,64,59,56,99,84,60,30.07,29.83,9,1,10,0.08
2013-6-27,71,70,63,63,60,60,95,73,69,30.21,30.05,9,1,10,0.10
2013-6-28,89,73,59,68,62,58,97,72,37,30.20,30.04,10,1,12,0.00
2013-6-29,82,69,64,65,61,58,89,77,52,30.10,30.00,9,1,10,0.00
2013-6-30,90,76,61,68,62,54,86,63,45,30.01,29.83,4,1,8,0.00
2013-7-1,89,76,64,66,62,58,81,61,41,30.02,29.90,8,1,10,0.00
2013-7-2,84,71,61,64,57,51,90,63,38,30.10,30.02,10,2,13,0.00
2013-7-3,82,66,58,58,51,46,75,60,40,30.16,30.04,9,2,13,0.00
2013-7-4,73,62,57,56,53,50,83,71,53,30.13,30.02,9,2,10,0.00
2013-7-5,74,64,54,57,54,52,95,72,53,30.03,29.94,8,1,10,0.00
2013-7-6,80,67,55,60,56,52,97,69,41,29.97,29.84,5,1,9,0.00
2013-7-7,77,66,57,60,57,53,92,72,52,29.95,29.86,8,1,10,0.00
2013-7-8,79,66,56,60,56,53,90,71,50,30.10,29.94,9,2,13,0.00
2013-7-9,84,71,58,61,56,52,94,63,41,30.12,29.99,8,1,10,0.00
2013-7-10,72,64,57,57,54,49,82,70,56,30.07,29.94,11,2,15,0.00
2013-7-11,73,61,55,52,49,47,78,66,45,30.09,29.99,9,2,13,0.00
2013-7-12,71,59,52,55,50,47,84,72,55,30.10,30.00,6,1,9,0.00
2013-7-13,79,64,51,56,49,46,86,61,34,30.21,30.10,9,2,13,0.00
2013-7-14,83,67,52,55,49,44,87,56,29,30.14,29.97,11,1,13,0.00
2013-7-15,82,68,54,58,51,47,86,56,37,30.05,29.88,12,2,16,0.00
2013-7-16,89,73,59,57,52,46,64,48,30,29.90,29.77,9,2,12,0.00
2013-7-17,72,65,59,60,57,54,95,74,59,30.20,29.86,13,2,16,0.06
2013-7-18,80,66,58,60,56,54,89,72,48,30.24,30.12,5,1,9,0.00
2013-7-19,80,66,55,62,57,53,97,76,49,30.17,30.03,5,1,10,0.00
2013-7-20,77,64,54,60,57,54,97,79,55,30.09,29.95,9,1,10,0.00
2013-7-21,77,64,56,60,57,54,96,80,54,29.98,29.89,8,1,10,0.00
2013-7-22,80,66,56,61,57,55,95,76,50,30.07,29.93,8,1,9,0.00
2013-7-23,86,69,54,62,56,50,97,65,35,30.07,29.96,5,1,8,0.00
2013-7-24,85,71,58,60,53,47,81,56,31,30.05,29.98,6,2,10,0.00
2013-7-25,86,70,56,59,52,46,88,56,31,30.10,30.02,9,1,10,0.00
2013-7-26,86,70,56,58,51,42,85,55,29,30.16,30.07,12,2,15,0.00
2013-7-27,79,66,55,55,52,48,87,62,39,30.17,29.99,9,1,10,0.00
2013-7-28,72,61,54,56,53,51,93,75,55,30.03,29.95,10,2,15,0.00
2013-7-29,75,64,55,57,54,52,87,71,51,30.00,29.94,10,1,10,0.00
2013-7-30,78,66,56,59,56,53,90,72,50,30.14,30.00,9,2,12,0.00
2013-7-31,72,62,56,61,57,54,96,84,63,30.13,29.98,8,1,10,0.00
2013-8-1,69,62,55,58,55,53,93,80,63,30.06,30.02,12,2,15,0.00
2013-8-2,61,59,57,60,57,54,99,92,82,30.13,30.05,11,2,16,0.13
2013-8-3,76,64,58,62,59,56,100,84,57,30.14,30.05,5,1,8,0.00
2013-8-4,82,69,55,63,58,54,97,72,46,30.06,29.93,7,1,12,0.00
2013-8-5,87,72,58,64,58,53,95,64,39,30.01,29.91,6,1,9,0.00
2013-8-6,87,70,56,60,55,50,90,60,28,30.00,29.90,6,1,9,0.00
2013-8-7,88,71,56,60,56,53,93,62,33,30.01,29.93,7,1,8,0.00
2013-8-8,82,68,58,61,57,54,93,68,45,30.04,29.92,9,1,12,0.00
2013-8-9,84,70,58,61,56,52,89,62,42,29.95,29.82,6,1,10,0.00
2013-8-10,77,68,58,64,60,57,98,79,57,30.00,29.87,9,2,12,0.06
2013-8-11,77,66,57,58,55,53,88,71,46,30.07,29.97,10,1,13,0.00
2013-8-12,79,66,58,58,56,54,90,69,45,30.07,30.00,9,1,12,0.00
2013-8-13,62,60,57,56,55,54,93,83,79,30.10,29.92,9,1,12,0.00
2013-8-14,79,62,61,62,57,56,92,83,46,29.95,29.90,7,1,10,0.00
2013-8-15,69,66,61,66,63,61,99,92,83,29.99,29.90,6,1,9,0.05
2013-8-16,84,71,60,66,60,47,100,73,32,30.00,29.93,9,1,12,0.00
2013-8-17,80,69,62,62,58,54,84,68,50,30.07,30.00,11,2,15,0.00
2013-8-18,80,67,60,60,56,52,87,70,48,30.13,30.07,11,2,13,0.00
2013-8-19,80,67,59,59,55,50,80,66,47,30.12,30.06,10,2,15,0.00
2013-8-20,79,66,57,57,52,4,82,61,44,30.17,30.07,9,2,15,0.00
2013-8-21,74,67,61,54,52,49,71,58,48,30.09,29.94,7,2,10,0.00
2013-8-22,85,72,58,56,54,50,82,54,36,29.94,29.77,5,1,6,0.00
2013-8-23,78,69,62,59,56,54,84,66,50,29.87,29.80,13,3,19,0.00
2013-8-24,79,66,60,58,55,51,86,69,39,29.91,29.84,9,1,10,0.00
2013-8-25,74,63,54,60,54,52,92,75,52,29.93,29.84,6,1,8,0.02
2013-8-26,79,66,61,60,58,51,88,76,44,29.95,29.84,8,2,15,0.03
2013-8-27,79,69,62,61,59,57,88,71,51,29.95,29.77,6,1,10,0.00
2013-8-28,79,72,62,67,62,59,100,70,55,29.88,29.83,0,0,0,0.00
2013-8-29,74,66,63,68,64,61,100,94,74,30.01,29.84,0,0,3,0.62
2013-8-30,79,67,60,64,57,51,97,72,38,30.16,30.01,0,0,0,0.00
2013-8-31,80,67,55,60,57,54,98,74,46,30.09,29.82,0,0,0,0.00
2013-9-1,81,69,58,62,58,56,94,71,48,29.87,29.77,0,0,0,0.00
2013-9-2,82,70,61,61,58,56,88,66,45,29.93,29.84,0,0,0,0.00
2013-9-3,75,64,60,67,61,58,99,89,67,30.02,29.92,0,0,0,0.21
2013-9-4,72,64,58,63,60,58,99,89,71,30.05,29.99,0,0,0,0.02
2013-9-5,67,61,59,63,60,58,100,94,82,30.04,29.92,0,0,2,0.46
2013-9-6,71,63,60,65,61,59,100,95,74,30.12,29.93,0,0,0,0.98
2013-9-7,73,64,60,63,60,58,97,87,66,30.10,30.01,6,0,6,0.00
2013-9-8,80,66,56,64,59,56,100,81,55,30.12,30.02,6,1,9,0.00
2013-9-9,78,65,56,63,59,56,100,84,57,30.07,29.97,5,0,9,0.00
2013-9-10,78,66,56,64,59,56,100,81,57,29.99,29.87,9,2,12,0.00
2013-9-11,89,73,59,66,60,55,96,67,38,29.93,29.85,9,1,10,0.00
2013-9-12,79,67,58,63,60,57,98,78,54,30.00,29.89,6,1,8,0.00
2013-9-13,68,62,59,62,60,58,100,92,80,29.96,29.86,5,0,8,0.00
2013-9-14,68,63,59,61,60,58,97,88,77,29.87,29.71,5,0,6,0.00
2013-9-15,67,60,57,62,59,56,100,96,85,29.80,29.69,11,2,13,0.29
2013-9-16,70,61,57,61,58,54,98,89,69,29.92,29.79,12,3,21,0.03
2013-9-17,63,58,55,55,53,51,96,84,68,29.92,29.85,4,1,6,0.00
2013-9-18,71,60,54,55,53,49,97,79,53,30.07,29.93,7,1,10,0.00
2013-9-19,78,62,49,54,50,47,98,69,40,30.04,29.73,5,1,8,0.00
2013-9-20,77,63,55,58,53,49,99,73,45,29.74,29.56,9,2,15,0.10
2013-9-21,71,60,55,58,55,52,97,82,59,29.69,29.61,11,2,15,0.02
2013-9-22,61,57,54,57,53,49,98,88,68,29.71,29.54,19,6,25,0.19
2013-9-23,62,56,52,56,52,47,98,88,73,29.96,29.70,16,4,25,0.18
2013-9-24,64,55,50,52,50,45,96,84,53,29.95,29.82,12,2,13,0.00
2013-9-25,59,52,48,51,49,46,99,89,71,30.02,29.84,8,1,13,0.06
2013-9-26,61,52,46,52,48,46,100,88,67,30.12,30.02,6,0,8,0.00
2013-9-27,56,55,50,53,52,50,98,90,84,30.01,29.82,16,4,22,0.03
2013-9-28,59,55,50,59,54,50,100,98,91,29.83,29.28,20,6,30,1.07
2013-9-29,55,52,51,53,50,48,100,93,84,29.52,29.08,20,8,33,0.59
2013-9-30,58,52,48,53,48,45,98,88,76,29.90,29.36,18,6,33,0.05
2013-10-1,60,51,47,50,47,44,99,86,63,30.10,29.89,16,5,24,0.14
2013-10-2,54,50,48,50,48,47,99,93,81,30.17,30.05,12,2,18,0.35
2013-10-3,56,50,46,50,47,45,98,89,66,30.48,30.17,6,1,8,0.02
2013-10-4,65,51,44,50,46,42,100,85,53,30.50,30.36,6,1,8,0.00
2013-10-5,70,55,45,53,49,45,100,82,51,30.38,30.12,5,0,6,0.00
2013-10-6,75,57,47,54,49,44,100,77,43,30.12,29.86,11,2,15,0.02
2013-10-7,63,55,52,52,50,45,98,84,60,30.00,29.87,16,4,24,0.06
2013-10-8,54,50,45,51,46,43,96,87,71,30.07,29.95,10,1,15,0.03
2013-10-9,60,48,40,48,44,40,100,87,60,30.13,29.94,6,1,8,0.00
2013-10-10,59,51,46,50,48,44,99,88,67,30.07,29.92,6,1,8,0.00
2013-10-11,53,50,49,50,49,49,100,98,88,30.14,30.06,2,0,4,0.00
2013-10-12,58,50,45,52,48,45,100,95,78,30.22,30.06,6,0,10,0.11
2013-10-13,52,46,43,48,46,43,100,98,83,30.37,30.22,5,1,8,0.00
2013-10-14,60,47,40,50,44,40,100,90,64,30.45,30.37,7,1,9,0.02
2013-10-15,58,49,41,51,46,41,100,92,68,30.40,30.17,5,0,6,0.00
2013-10-16,54,49,45,49,48,45,100,94,83,30.20,30.15,8,1,10,0.08
2013-10-17,55,49,46,49,48,46,100,94,81,30.28,30.20,6,1,10,0.00
2013-10-18,57,47,42,51,46,42,100,97,76,30.25,30.14,3,1,6,0.02
2013-10-19,50,46,43,49,46,43,100,98,93,30.20,30.15,4,1,6,0.00
2013-10-20,50,47,46,48,47,46,100,98,93,30.21,30.15,5,1,8,0.00
2013-10-21,51,48,45,50,47,45,100,98,92,30.17,30.09,6,1,8,0.00
2013-10-22,55,48,45,51,48,45,100,97,86,30.12,30.02,6,1,8,0.00
2013-10-23,57,48,44,52,47,44,100,97,80,30.05,29.96,4,1,6,0.00
2013-10-24,51,47,44,50,47,44,100,99,93,30.12,30.01,4,0,4,0.02
2013-10-25,52,48,46,50,48,46,100,98,90,30.33,30.12,8,1,9,0.02
2013-10-26,53,49,46,48,47,46,100,91,81,30.35,30.19,8,1,10,0.02
2013-10-27,55,49,45,51,46,44,100,91,78,30.20,29.88,18,2,22,0.05
2013-10-28,56,49,43,45,38,32,100,68,46,29.93,29.86,12,2,21,0.08
2013-10-29,55,45,37,42,38,35,100,80,52,30.02,29.93,6,1,9,0.00
2013-10-30,55,47,38,48,43,38,100,85,67,30.12,30.02,14,3,19,0.02
2013-10-31,55,51,49,51,48,43,97,90,77,30.26,30.09,13,2,21,0.00
2013-11-1,60,54,51,52,50,48,97,87,68,30.27,29.82,8,1,10,0.00
2013-11-2,53,49,44,51,46,40,100,88,71,29.86,29.44,35,5,52,2.43
2013-11-3,53,44,40,44,41,39,99,89,64,30.10,29.86,9,2,12,0.02
2013-11-4,49,43,37,43,39,31,100,86,52,30.19,30.04,7,1,8,0.02
2013-11-5,54,46,43,50,46,42,100,97,88,30.26,29.99,8,1,10,0.00
2013-11-6,52,47,43,47,45,43,100,94,78,30.33,30.02,6,1,9,0.05
2013-11-7,50,48,47,49,48,46,100,98,87,30.01,29.68,28,5,31,1.25
2013-11-8,54,49,47,46,45,43,95,85,70,30.13,29.95,10,2,13,0.00
2013-11-9,45,45,45,45,45,45,100,100,98,30.11,30.09,4,1,8,0.02
2013-11-10,49,46,44,47,45,44,100,96,88,30.15,30.08,8,1,10,0.00
2013-11-11,57,49,42,49,46,42,100,89,65,30.15,29.99,6,1,8,0.00
2013-11-12,50,50,50,46,46,46,88,88,88,30.33,30.04,15,2,18,0.00